createdAt,value
2018-01-22T00:01:03.738Z,22.13
2018-01-22T00:03:31.879Z,14.23
2018-01-22T00:06:00.796Z,11.10
2018-01-22T00:08:28.937Z,11.20
2018-01-22T00:10:57.636Z,8.00
2018-01-22T00:13:25.756Z,9.70
2018-01-22T00:15:54.756Z,9.43
2018-01-22T00:18:23.683Z,8.10
2018-01-22T00:20:51.860Z,6.80
2018-01-22T00:23:19.986Z,12.27
2018-01-22T00:25:48.477Z,8.23
2018-01-22T00:28:16.596Z,11.03
2018-01-22T00:30:44.754Z,10.10
2018-01-22T00:33:13.596Z,6.83
2018-01-22T00:35:42.525Z,12.10
2018-01-22T00:38:10.664Z,7.70
2018-01-22T00:40:38.828Z,7.30
2018-01-22T00:43:06.979Z,11.20
2018-01-22T00:45:35.111Z,8.50
2018-01-22T00:48:03.265Z,6.90
2018-01-22T00:50:32.183Z,8.70
2018-01-22T00:53:00.322Z,8.17
2018-01-22T00:55:29.252Z,12.83
2018-01-22T00:57:57.381Z,6.40
2018-01-22T01:00:25.562Z,9.17
2018-01-22T01:02:53.718Z,9.77
2018-01-22T01:05:21.832Z,7.20
2018-01-22T01:07:49.988Z,6.73
2018-01-22T01:10:18.116Z,8.70
2018-01-22T01:12:46.267Z,6.43
2018-01-22T01:15:14.408Z,7.37
2018-01-22T01:17:44.007Z,6.17
2018-01-22T01:20:13.649Z,6.37
2018-01-22T01:22:42.564Z,5.63
2018-01-22T01:25:10.712Z,4.23
2018-01-22T01:27:38.853Z,6.50
2018-01-22T01:30:07.040Z,7.53
2018-01-22T01:32:35.156Z,7.40
2018-01-22T01:35:03.308Z,6.67
2018-01-22T01:37:31.433Z,5.73
2018-01-22T01:40:00.344Z,7.37
2018-01-22T01:42:28.468Z,7.23
2018-01-22T01:44:56.652Z,7.13
2018-01-22T01:47:26.202Z,11.00
2018-01-22T01:49:54.342Z,12.17
2018-01-22T01:52:22.496Z,8.30
2018-01-22T01:54:50.649Z,8.80
2018-01-22T01:57:18.818Z,7.83
2018-01-22T01:59:47.743Z,13.20
2018-01-22T02:02:15.889Z,9.30
2018-01-22T02:04:44.800Z,8.30
2018-01-22T02:07:13.719Z,11.57
2018-01-22T02:09:41.880Z,8.67
2018-01-22T02:12:10.025Z,7.73
2018-01-22T02:14:38.168Z,8.43
2018-01-22T02:17:06.326Z,8.03
2018-01-22T02:19:34.462Z,8.60
2018-01-22T02:22:02.630Z,7.50
2018-01-22T02:24:31.517Z,7.73
2018-01-22T02:27:00.466Z,8.43
2018-01-22T02:29:28.580Z,10.20
2018-01-22T02:31:56.704Z,7.50
2018-01-22T02:34:26.123Z,11.53
2018-01-22T02:36:54.324Z,8.97
2018-01-22T02:39:22.443Z,9.07
2018-01-22T02:41:50.617Z,7.90
2018-01-22T02:44:18.785Z,7.33
2018-01-22T02:46:46.952Z,10.80
2018-01-22T02:49:15.104Z,9.60
2018-01-22T02:51:43.309Z,9.20
2018-01-22T02:54:11.496Z,9.23
2018-01-22T02:56:39.622Z,8.53
2018-01-22T02:59:07.787Z,10.70
2018-01-22T03:01:35.919Z,8.37
2018-01-22T03:04:04.045Z,10.97
2018-01-22T03:06:32.966Z,8.90
2018-01-22T03:09:01.868Z,10.17
2018-01-22T03:11:30.004Z,12.50
2018-01-22T03:13:59.143Z,10.30
2018-01-22T03:16:28.946Z,12.03
2018-01-22T03:18:57.864Z,10.50
2018-01-22T03:21:26.028Z,13.57
2018-01-22T03:23:54.183Z,10.17
2018-01-22T03:26:22.334Z,11.70
2018-01-22T03:28:51.239Z,14.20
2018-01-22T03:31:20.166Z,11.73
2018-01-22T03:33:48.337Z,9.93
2018-01-22T03:36:17.276Z,12.67
2018-01-22T03:38:45.416Z,9.97
2018-01-22T03:41:14.337Z,11.27
2018-01-22T03:43:42.470Z,9.63
2018-01-22T03:46:10.612Z,12.87
2018-01-22T03:48:38.937Z,10.37
2018-01-22T03:51:07.065Z,13.20
2018-01-22T03:53:35.545Z,9.83
2018-01-22T03:56:03.677Z,9.83
2018-01-22T03:58:31.806Z,11.20
2018-01-22T04:00:59.969Z,10.30
2018-01-22T04:03:28.114Z,11.30
2018-01-22T04:05:57.032Z,11.57
2018-01-22T04:08:26.559Z,11.33
2018-01-22T04:10:54.709Z,10.70
2018-01-22T04:13:22.865Z,11.87
2018-01-22T04:15:51.065Z,11.40
2018-01-22T04:18:19.208Z,12.70
2018-01-22T04:20:47.344Z,12.20
2018-01-22T04:23:15.512Z,10.00
2018-01-22T04:25:44.847Z,11.60
2018-01-22T04:28:13.960Z,11.50
2018-01-22T04:30:42.862Z,11.50
2018-01-22T04:33:11.449Z,8.53
2018-01-22T04:35:39.593Z,10.33
2018-01-22T04:38:07.764Z,11.30
2018-01-22T04:40:35.916Z,10.90
2018-01-22T04:43:04.064Z,9.90
2018-01-22T04:45:32.201Z,11.83
2018-01-22T04:48:01.143Z,12.20
2018-01-22T04:50:29.303Z,11.70
2018-01-22T04:52:57.449Z,11.00
2018-01-22T04:55:25.668Z,12.13
2018-01-22T04:57:54.049Z,13.13
2018-01-22T05:00:22.184Z,11.80
2018-01-22T05:02:50.340Z,11.77
2018-01-22T05:05:18.504Z,12.20
2018-01-22T05:07:46.660Z,14.00
2018-01-22T05:10:14.813Z,9.60
2018-01-22T05:12:42.996Z,13.40
2018-01-22T05:15:11.130Z,9.80
2018-01-22T05:17:39.281Z,12.10
2018-01-22T05:20:07.428Z,9.10
2018-01-22T05:22:35.565Z,10.70
2018-01-22T05:25:03.713Z,11.60
2018-01-22T05:27:31.855Z,10.20
2018-01-22T05:30:00.020Z,10.77
2018-01-22T05:32:28.167Z,10.67
2018-01-22T05:34:56.309Z,9.67
2018-01-22T05:37:25.093Z,10.77
2018-01-22T05:39:53.281Z,9.43
2018-01-22T05:42:21.456Z,12.87
2018-01-22T05:44:49.602Z,9.30
2018-01-22T05:47:17.761Z,9.10
2018-01-22T05:49:45.901Z,16.50
2018-01-22T05:52:14.033Z,9.77
2018-01-22T05:54:43.217Z,10.63
2018-01-22T05:57:11.372Z,9.77
2018-01-22T05:59:40.208Z,11.33
2018-01-22T06:02:08.359Z,14.53
2018-01-22T06:04:37.298Z,12.47
2018-01-22T06:07:05.417Z,12.20
2018-01-22T06:09:33.557Z,14.37
2018-01-22T06:12:01.703Z,12.70
2018-01-22T06:14:29.857Z,9.33
2018-01-22T06:16:58.006Z,10.60
2018-01-22T06:19:26.158Z,12.67
2018-01-22T06:21:54.277Z,9.93
2018-01-22T06:24:22.435Z,8.70
2018-01-22T06:26:50.569Z,8.23
2018-01-22T06:29:18.734Z,11.50
2018-01-22T06:31:46.862Z,10.10
2018-01-22T06:34:15.005Z,12.33
2018-01-22T06:36:43.921Z,17.03
2018-01-22T06:39:12.183Z,12.20
2018-01-22T06:41:41.196Z,13.20
2018-01-22T06:44:10.660Z,10.60
2018-01-22T06:46:38.809Z,14.57
2018-01-22T06:49:06.950Z,13.43
2018-01-22T06:51:35.113Z,12.00
2018-01-22T06:54:03.240Z,14.50
2018-01-22T06:56:32.154Z,18.00
2018-01-22T06:59:01.068Z,21.87
2018-01-22T07:01:29.218Z,18.20
2018-01-22T07:03:57.356Z,16.33
2018-01-22T07:06:25.522Z,14.93
2018-01-22T07:08:55.359Z,13.97
2018-01-22T07:11:23.549Z,19.33
2018-01-22T07:13:51.725Z,14.80
2018-01-22T07:16:19.883Z,23.33
2018-01-22T07:18:48.799Z,16.40
2018-01-22T07:21:17.749Z,19.50
2018-01-22T07:23:45.893Z,28.43
2018-01-22T07:26:14.023Z,27.60
2018-01-22T07:28:42.185Z,15.10
2018-01-22T07:31:10.316Z,13.90
2018-01-22T07:33:42.147Z,16.40
2018-01-22T07:36:10.292Z,20.30
2018-01-22T07:38:39.226Z,19.80
2018-01-22T07:41:07.384Z,28.10
2018-01-22T07:43:36.320Z,25.03
2018-01-22T07:46:04.465Z,18.47
2018-01-22T07:48:33.397Z,18.30
2018-01-22T07:51:05.943Z,17.90
2018-01-22T07:53:34.903Z,20.10
2018-01-22T07:56:03.045Z,17.80
2018-01-22T07:58:32.984Z,17.77
2018-01-22T08:01:01.129Z,21.23
2018-01-22T08:03:29.275Z,23.47
2018-01-22T08:05:58.986Z,20.20
2018-01-22T08:08:27.116Z,18.93
2018-01-22T08:10:56.036Z,23.20
2018-01-22T08:13:24.176Z,23.77
2018-01-22T08:15:53.210Z,34.93
2018-01-22T08:18:21.348Z,41.73
2018-01-22T08:20:49.550Z,19.50
2018-01-22T08:23:18.463Z,24.30
2018-01-22T08:25:48.066Z,19.57
2018-01-22T08:28:16.989Z,17.33
2018-01-22T08:30:45.982Z,26.47
2018-01-22T08:33:14.128Z,18.57
2018-01-22T08:35:42.281Z,20.90
2018-01-22T08:38:10.470Z,22.17
2018-01-22T08:40:38.612Z,21.70
2018-01-22T08:43:07.544Z,18.40
2018-01-22T08:45:35.692Z,20.30
2018-01-22T08:48:03.841Z,24.20
2018-01-22T08:50:31.973Z,22.67
2018-01-22T08:53:00.161Z,34.83
2018-01-22T08:55:28.920Z,19.50
2018-01-22T08:57:57.098Z,22.20
2018-01-22T09:00:25.268Z,26.50
2018-01-22T09:02:53.407Z,21.00
2018-01-22T09:05:21.564Z,21.77
2018-01-22T09:07:49.708Z,23.13
2018-01-22T09:10:18.621Z,25.40
2018-01-22T09:12:46.752Z,42.07
2018-01-22T09:15:14.928Z,43.90
2018-01-22T09:17:43.080Z,41.10
2018-01-22T09:20:11.224Z,44.40
2018-01-22T09:22:39.397Z,25.33
2018-01-22T09:25:07.544Z,22.17
2018-01-22T09:27:35.753Z,22.10
2018-01-22T09:30:03.922Z,34.50
2018-01-22T09:32:32.069Z,23.80
2018-01-22T09:35:01.033Z,21.43
2018-01-22T09:37:29.163Z,20.87
2018-01-22T09:39:57.314Z,22.30
2018-01-22T09:42:25.458Z,18.80
2018-01-22T09:44:53.649Z,22.10
2018-01-22T09:47:21.800Z,25.57
2018-01-22T09:49:50.930Z,25.73
2018-01-22T09:52:19.844Z,26.57
2018-01-22T09:54:48.009Z,23.17
2018-01-22T09:57:16.131Z,17.93
2018-01-22T09:59:44.286Z,15.77
2018-01-22T10:02:12.421Z,9.57
2018-01-22T10:04:40.594Z,10.47
2018-01-22T10:07:08.779Z,9.00
2018-01-22T10:09:36.932Z,9.13
2018-01-22T10:12:05.833Z,6.90
2018-01-22T10:14:34.719Z,6.97
2018-01-22T10:17:03.659Z,6.17
2018-01-22T10:19:31.805Z,7.40
2018-01-22T10:21:59.974Z,6.33
2018-01-22T10:24:28.113Z,6.83
2018-01-22T10:26:56.269Z,7.30
2018-01-22T10:29:24.420Z,8.33
2018-01-22T10:31:52.569Z,8.13
2018-01-22T10:34:21.491Z,6.20
2018-01-22T10:36:49.630Z,7.57
2018-01-22T10:39:17.781Z,8.77
2018-01-22T10:41:45.916Z,5.00
2018-01-22T10:44:14.048Z,4.00
2018-01-22T10:46:42.201Z,7.23
2018-01-22T10:49:11.086Z,9.93
2018-01-22T10:51:39.258Z,6.93
2018-01-22T10:54:07.412Z,6.20
2018-01-22T10:56:35.551Z,5.10
2018-01-22T10:59:04.449Z,7.87
2018-01-22T11:01:32.623Z,5.17
2018-01-22T11:04:00.775Z,4.07
2018-01-22T11:06:28.912Z,7.57
2018-01-22T11:08:59.115Z,5.23
2018-01-22T11:11:27.272Z,4.77
2018-01-22T11:13:55.469Z,7.33
2018-01-22T11:16:23.589Z,4.07
2018-01-22T11:18:51.817Z,10.73
2018-01-22T11:21:20.725Z,5.63
2018-01-22T11:23:48.872Z,5.03
2018-01-22T11:26:17.022Z,3.57
2018-01-22T11:28:45.204Z,4.27
2018-01-22T11:31:13.349Z,7.20
2018-01-22T11:33:42.269Z,4.10
2018-01-22T11:36:10.416Z,4.47
2018-01-22T11:38:38.557Z,3.73
2018-01-22T11:41:06.708Z,3.40
2018-01-22T11:43:35.620Z,5.07
2018-01-22T11:46:04.556Z,5.23
2018-01-22T11:48:32.701Z,6.40
2018-01-22T11:51:00.845Z,7.73
2018-01-22T11:53:28.985Z,6.63
2018-01-22T11:55:57.152Z,8.00
2018-01-22T11:58:25.809Z,11.60
2018-01-22T12:00:53.964Z,10.50
2018-01-22T12:03:22.114Z,13.03
2018-01-22T12:05:50.257Z,15.40
2018-01-22T12:08:19.225Z,17.33
2018-01-22T12:10:48.140Z,17.60
2018-01-22T12:13:16.309Z,11.93
2018-01-22T12:15:45.218Z,9.83
2018-01-22T12:18:14.977Z,10.10
2018-01-22T12:20:43.099Z,19.77
2018-01-22T12:23:12.148Z,10.00
2018-01-22T12:25:40.330Z,8.63
2018-01-22T12:28:09.284Z,8.23
2018-01-22T12:30:37.414Z,8.27
2018-01-22T12:33:06.345Z,10.00
2018-01-22T12:35:34.503Z,10.33
2018-01-22T12:38:03.412Z,9.43
2018-01-22T12:40:32.328Z,8.40
2018-01-22T12:43:00.465Z,5.97
2018-01-22T12:45:29.484Z,8.27
2018-01-22T12:47:57.622Z,7.23
2018-01-22T12:50:26.627Z,6.90
2018-01-22T12:52:54.803Z,10.40
2018-01-22T12:55:22.969Z,5.47
2018-01-22T12:57:51.123Z,8.90
2018-01-22T13:00:19.347Z,9.53
2018-01-22T13:02:47.513Z,7.30
2018-01-22T13:05:16.293Z,6.23
2018-01-22T13:07:44.447Z,4.47
2018-01-22T13:10:12.611Z,6.87
2018-01-22T13:12:41.893Z,5.87
2018-01-22T13:15:10.055Z,5.67
2018-01-22T13:17:38.214Z,7.73
2018-01-22T13:20:07.457Z,5.73
2018-01-22T13:22:35.589Z,6.90
2018-01-22T13:25:03.757Z,5.80
2018-01-22T13:27:31.924Z,4.60
2018-01-22T13:30:00.051Z,6.20
2018-01-22T13:32:30.651Z,5.67
2018-01-22T13:34:58.784Z,5.80
2018-01-22T13:37:27.684Z,10.90
2018-01-22T13:40:02.437Z,14.33
2018-01-22T13:42:30.605Z,12.07
2018-01-22T13:45:00.140Z,11.53
2018-01-22T13:47:28.292Z,10.87
2018-01-22T13:49:56.453Z,11.70
2018-01-22T13:52:25.510Z,8.83
2018-01-22T13:54:54.410Z,7.87
2018-01-22T13:57:23.336Z,8.20
2018-01-22T13:59:51.483Z,7.40
2018-01-22T14:02:20.436Z,8.57
2018-01-22T14:04:48.565Z,6.00
2018-01-22T14:07:16.747Z,6.30
2018-01-22T14:09:44.921Z,6.80
2018-01-22T14:12:13.083Z,6.47
2018-01-22T14:14:41.838Z,5.30
2018-01-22T14:17:09.974Z,7.10
2018-01-22T14:19:38.135Z,5.37
2018-01-22T14:22:06.269Z,3.77
2018-01-22T14:24:35.313Z,4.40
2018-01-22T14:27:03.483Z,5.63
2018-01-22T14:29:32.474Z,7.43
2018-01-22T14:32:00.637Z,4.07
2018-01-22T14:34:28.790Z,4.80
2018-01-22T14:36:56.921Z,5.20
2018-01-22T14:39:25.108Z,3.67
2018-01-22T14:41:53.258Z,3.00
2018-01-22T14:44:21.400Z,3.20
2018-01-22T14:46:49.559Z,6.00
2018-01-22T14:49:17.723Z,3.40
2018-01-22T14:51:45.864Z,4.57
2018-01-22T14:54:15.663Z,3.93
2018-01-22T14:56:43.830Z,9.93
2018-01-22T14:59:11.973Z,9.10
2018-01-22T15:01:41.512Z,13.17
2018-01-22T15:04:09.680Z,19.13
2018-01-22T15:06:37.824Z,27.17
2018-01-22T15:09:05.959Z,35.17
2018-01-22T15:11:34.913Z,29.80
2018-01-22T15:14:03.096Z,11.70
2018-01-22T15:16:31.225Z,6.93
2018-01-22T15:19:00.140Z,9.03
2018-01-22T15:21:29.075Z,20.30
2018-01-22T15:23:57.257Z,36.70
2018-01-22T15:26:26.105Z,46.30
2018-01-22T15:28:54.281Z,47.97
2018-01-22T15:31:22.468Z,42.93
2018-01-22T15:33:50.628Z,51.00
2018-01-22T15:36:18.801Z,53.30
2018-01-22T15:38:46.988Z,37.93
2018-01-22T15:41:15.189Z,32.27
2018-01-22T15:43:43.316Z,33.40
2018-01-22T15:46:12.238Z,20.30
2018-01-22T15:48:41.137Z,19.50
2018-01-22T15:51:11.448Z,19.20
2018-01-22T15:53:39.609Z,20.43
2018-01-22T15:56:08.538Z,17.70
2018-01-22T15:58:36.687Z,20.87
2018-01-22T16:01:05.614Z,31.97
2018-01-22T16:03:33.780Z,31.33
2018-01-22T16:06:02.794Z,33.27
2018-01-22T16:08:30.976Z,26.00
2018-01-22T16:10:59.144Z,21.87
2018-01-22T16:13:27.306Z,22.53
2018-01-22T16:15:55.505Z,23.43
2018-01-22T16:18:23.687Z,41.43
2018-01-22T16:20:51.858Z,24.10
2018-01-22T16:23:20.023Z,25.03
2018-01-22T16:25:48.182Z,26.80
2018-01-22T16:28:16.357Z,24.87
2018-01-22T16:30:44.504Z,20.07
2018-01-22T16:33:12.668Z,31.77
2018-01-22T16:35:40.843Z,36.10
2018-01-22T16:38:09.009Z,33.20
2018-01-22T16:40:37.172Z,50.80
2018-01-22T16:43:05.357Z,40.93
2018-01-22T16:45:33.500Z,38.07
2018-01-22T16:48:01.679Z,45.37
2018-01-22T16:50:29.824Z,42.60
2018-01-22T16:52:58.070Z,45.83
2018-01-22T16:55:26.196Z,38.37
2018-01-22T16:57:54.410Z,25.77
2018-01-22T17:00:22.589Z,27.83
2018-01-22T17:02:50.721Z,18.07
2018-01-22T17:05:18.897Z,19.53
2018-01-22T17:07:47.087Z,14.57
2018-01-22T17:10:15.270Z,16.13
2018-01-22T17:12:43.418Z,16.00
2018-01-22T17:15:12.164Z,15.83
2018-01-22T17:17:40.354Z,40.97
2018-01-22T17:20:09.132Z,62.43
2018-01-22T17:22:37.274Z,53.10
2018-01-22T17:25:05.459Z,52.60
2018-01-22T17:27:33.604Z,48.63
2018-01-22T17:30:01.881Z,51.07
2018-01-22T17:32:30.021Z,54.03
2018-01-22T17:34:58.980Z,58.10
2018-01-22T17:37:28.016Z,51.03
2018-01-22T17:39:57.883Z,59.87
2018-01-22T17:42:26.822Z,57.20
2018-01-22T17:44:55.032Z,59.37
2018-01-22T17:47:23.177Z,48.87
2018-01-22T17:49:51.950Z,57.43
2018-01-22T17:52:20.148Z,58.70
2018-01-22T17:54:49.974Z,55.37
2018-01-22T17:57:18.941Z,48.70
2018-01-22T17:59:47.858Z,51.83
2018-01-22T18:02:16.062Z,47.03
2018-01-22T18:04:44.201Z,46.57
2018-01-22T18:07:13.297Z,43.70
2018-01-22T18:09:41.470Z,44.80
2018-01-22T18:12:09.644Z,39.80
2018-01-22T18:14:37.802Z,44.93
2018-01-22T18:17:05.960Z,46.10
2018-01-22T18:19:35.099Z,54.47
2018-01-22T18:22:04.907Z,54.00
2018-01-22T18:24:33.851Z,47.67
2018-01-22T18:27:02.051Z,47.60
2018-01-22T18:29:30.238Z,41.67
2018-01-22T18:31:58.428Z,44.20
2018-01-22T18:34:26.615Z,44.43
2018-01-22T18:36:54.742Z,45.33
2018-01-22T18:39:23.687Z,36.67
2018-01-22T18:41:51.846Z,41.27
2018-01-22T18:44:20.769Z,40.80
2018-01-22T18:46:48.954Z,39.43
2018-01-22T18:49:17.219Z,38.23
2018-01-22T18:51:46.167Z,40.37
2018-01-22T18:54:14.331Z,38.43
2018-01-22T18:56:42.498Z,38.43
2018-01-22T18:59:11.471Z,31.40
2018-01-22T19:01:39.644Z,38.60
2018-01-22T19:04:07.809Z,40.17
2018-01-22T19:06:36.724Z,32.47
2018-01-22T19:09:04.873Z,34.40
2018-01-22T19:11:33.083Z,34.37
2018-01-22T19:14:01.248Z,43.90
2018-01-22T19:16:29.449Z,31.20
2018-01-22T19:18:57.625Z,33.53
2018-01-22T19:21:25.793Z,41.20
2018-01-22T19:23:54.717Z,31.43
2018-01-22T19:26:23.654Z,37.13
2018-01-22T19:28:51.800Z,35.90
2018-01-22T19:31:19.978Z,42.43
2018-01-22T19:33:48.932Z,35.40
2018-01-22T19:36:17.133Z,36.40
2018-01-22T19:38:45.301Z,33.50
2018-01-22T19:41:13.476Z,40.27
2018-01-22T19:43:41.660Z,40.10
2018-01-22T19:46:09.817Z,28.23
2018-01-22T19:48:38.750Z,24.03
2018-01-22T19:51:06.952Z,27.43
2018-01-22T19:53:35.708Z,23.20
2018-01-22T19:56:04.630Z,33.10
2018-01-22T19:58:32.893Z,23.27
2018-01-22T20:01:01.080Z,25.13
2018-01-22T20:03:30.166Z,21.93
2018-01-22T20:05:58.317Z,27.70
2018-01-22T20:08:27.271Z,32.33
2018-01-22T20:10:56.194Z,27.63
2018-01-22T20:13:25.134Z,24.43
2018-01-22T20:15:54.153Z,20.73
2018-01-22T20:18:22.357Z,20.90
2018-01-22T20:20:51.194Z,28.27
2018-01-22T20:23:20.148Z,19.63
2018-01-22T20:25:49.511Z,22.40
2018-01-22T20:28:19.293Z,20.43
2018-01-22T20:30:48.323Z,15.67
2018-01-22T20:33:16.462Z,15.63
2018-01-22T20:35:44.671Z,22.17
2018-01-22T20:38:12.797Z,14.80
2018-01-22T20:40:41.824Z,17.90
2018-01-22T20:43:09.956Z,21.73
2018-01-22T20:45:38.148Z,14.73
2018-01-22T20:48:06.317Z,14.00
2018-01-22T20:50:34.461Z,19.30
2018-01-22T20:53:03.101Z,14.00
2018-01-22T20:55:31.241Z,19.53
2018-01-22T20:58:00.174Z,19.90
2018-01-22T21:00:28.328Z,13.67
2018-01-22T21:02:57.274Z,15.73
2018-01-22T21:05:25.417Z,17.33
2018-01-22T21:07:53.609Z,19.87
2018-01-22T21:10:22.512Z,17.60
2018-01-22T21:12:52.005Z,16.10
2018-01-22T21:15:21.084Z,13.77
2018-01-22T21:17:49.266Z,19.97
2018-01-22T21:20:18.019Z,14.60
2018-01-22T21:22:46.957Z,12.43
2018-01-22T21:25:15.122Z,17.30
2018-01-22T21:27:43.968Z,14.43
2018-01-22T21:30:12.137Z,18.00
2018-01-22T21:32:40.282Z,15.87
2018-01-22T21:35:09.231Z,9.73
2018-01-22T21:37:37.388Z,13.20
2018-01-22T21:40:05.549Z,23.17
2018-01-22T21:42:34.482Z,15.40
2018-01-22T21:45:02.637Z,15.10
2018-01-22T21:47:30.784Z,11.67
2018-01-22T21:49:59.780Z,15.50
2018-01-22T21:52:27.964Z,17.33
2018-01-22T21:54:56.125Z,19.30
2018-01-22T21:57:25.058Z,17.80
2018-01-22T21:59:53.214Z,11.60
2018-01-22T22:02:22.145Z,12.33
2018-01-22T22:04:51.105Z,14.67
2018-01-22T22:07:19.258Z,11.93
2018-01-22T22:09:47.459Z,12.77
2018-01-22T22:12:15.552Z,19.57
2018-01-22T22:14:43.703Z,16.50
2018-01-22T22:17:11.861Z,11.40
2018-01-22T22:19:40.007Z,20.33
2018-01-22T22:22:08.154Z,13.30
2018-01-22T22:24:36.325Z,16.63
2018-01-22T22:27:04.449Z,13.27
2018-01-22T22:29:32.650Z,14.77
2018-01-22T22:32:00.779Z,16.17
2018-01-22T22:34:28.896Z,15.13
2018-01-22T22:36:57.066Z,15.93
2018-01-22T22:39:25.193Z,13.30
2018-01-22T22:41:53.349Z,12.93
2018-01-22T22:44:21.465Z,17.03
2018-01-22T22:46:49.640Z,16.30
2018-01-22T22:49:18.552Z,16.03
2018-01-22T22:51:46.685Z,15.70
2018-01-22T22:54:14.824Z,18.30
2018-01-22T22:56:42.978Z,24.87
2018-01-22T22:59:11.124Z,18.00
2018-01-22T23:01:40.084Z,22.87
2018-01-22T23:04:08.291Z,21.00
2018-01-22T23:06:36.425Z,25.93
2018-01-22T23:09:04.574Z,14.27
2018-01-22T23:11:33.482Z,24.20
2018-01-22T23:14:01.633Z,22.13
2018-01-22T23:16:30.570Z,17.17
2018-01-22T23:18:58.712Z,18.83
2018-01-22T23:21:26.851Z,20.80
2018-01-22T23:23:55.786Z,19.80
2018-01-22T23:26:23.921Z,18.67
2018-01-22T23:28:52.059Z,15.03
2018-01-22T23:31:20.239Z,16.30
2018-01-22T23:33:48.369Z,19.53
2018-01-22T23:36:16.538Z,18.80
2018-01-22T23:38:44.673Z,18.70
2018-01-22T23:41:14.177Z,16.70
2018-01-22T23:43:42.351Z,31.30
2018-01-22T23:46:12.021Z,19.50
2018-01-22T23:48:40.153Z,19.67
2018-01-22T23:51:08.327Z,16.00
2018-01-22T23:53:36.468Z,17.43
2018-01-22T23:56:05.364Z,17.60
2018-01-22T23:58:33.508Z,22.90
